createdAt,value
2023-03-17T00:00:59.512Z,96048.98
2023-03-17T00:03:30.490Z,96052.52
2023-03-17T00:06:03.905Z,96051.09
2023-03-17T00:08:35.556Z,96046.29
2023-03-17T00:11:07.261Z,96043.80
2023-03-17T00:13:38.680Z,96041.75
2023-03-17T00:16:17.072Z,96048.42
2023-03-17T00:18:47.407Z,96051.41
2023-03-17T00:21:22.398Z,96050.35
2023-03-17T00:23:53.527Z,96050.36
2023-03-17T00:26:24.207Z,96048.85
2023-03-17T00:28:54.944Z,96048.89
2023-03-17T00:31:27.538Z,96049.44
2023-03-17T00:33:58.896Z,96049.77
2023-03-17T00:36:31.632Z,96054.02
2023-03-17T00:39:02.213Z,96053.10
2023-03-17T00:41:33.127Z,96057.42
2023-03-17T00:44:03.349Z,96055.06
2023-03-17T00:46:36.246Z,96057.55
2023-03-17T00:49:15.469Z,96060.16
2023-03-17T00:51:46.265Z,96059.92
2023-03-17T00:54:16.678Z,96060.39
2023-03-17T00:56:48.763Z,96058.64
2023-03-17T00:59:26.762Z,96057.83
2023-03-17T01:01:57.521Z,96052.95
2023-03-17T01:04:28.665Z,96052.88
2023-03-17T01:06:59.769Z,96058.60
2023-03-17T01:09:30.863Z,96060.92
2023-03-17T01:12:01.441Z,96060.35
2023-03-17T01:14:32.264Z,96059.05
2023-03-17T01:17:02.488Z,96065.04
2023-03-17T01:19:32.666Z,96064.93
2023-03-17T01:22:02.980Z,96068.66
2023-03-17T01:24:33.426Z,96079.89
2023-03-17T01:27:05.170Z,96079.04
2023-03-17T01:29:35.827Z,96079.30
2023-03-17T01:32:07.280Z,96085.38
2023-03-17T01:34:37.928Z,96084.69
2023-03-17T01:37:09.919Z,96092.86
2023-03-17T01:39:40.558Z,96097.90
2023-03-17T01:42:11.274Z,96097.99
2023-03-17T01:44:59.257Z,96101.13
2023-03-17T01:47:31.765Z,96102.13
2023-03-17T01:50:07.198Z,96107.21
2023-03-17T01:52:39.466Z,96111.31
2023-03-17T01:55:13.193Z,96115.20
2023-03-17T01:57:46.797Z,96111.47
2023-03-17T02:00:20.752Z,96109.64
2023-03-17T02:02:53.725Z,96110.16
2023-03-17T02:05:26.893Z,96108.23
2023-03-17T02:07:58.438Z,96111.15
2023-03-17T02:10:30.197Z,96115.66
2023-03-17T02:13:03.726Z,96115.02
2023-03-17T02:15:41.765Z,96114.98
2023-03-17T02:18:12.886Z,96118.84
2023-03-17T02:21:20.338Z,96125.05
2023-03-17T02:23:51.219Z,96127.59
2023-03-17T02:26:22.993Z,96132.55
2023-03-17T02:28:53.863Z,96133.05
2023-03-17T02:31:25.956Z,96137.09
2023-03-17T02:33:57.298Z,96143.02
2023-03-17T02:36:27.666Z,96142.38
2023-03-17T02:38:58.268Z,96145.59
2023-03-17T02:41:29.070Z,96147.35
2023-03-17T02:43:59.787Z,96144.59
2023-03-17T02:46:30.957Z,96142.15
2023-03-17T02:49:02.105Z,96137.73
2023-03-17T02:51:33.097Z,96140.42
2023-03-17T02:54:04.233Z,96139.42
2023-03-17T02:56:34.643Z,96139.85
2023-03-17T02:59:05.948Z,96142.42
2023-03-17T03:01:38.591Z,96140.79
2023-03-17T03:04:10.125Z,96142.71
2023-03-17T03:06:42.306Z,96143.80
2023-03-17T03:09:12.788Z,96136.52
2023-03-17T03:11:42.963Z,96137.45
2023-03-17T03:14:13.327Z,96142.80
2023-03-17T03:16:44.126Z,96147.56
2023-03-17T03:19:14.421Z,96144.58
2023-03-17T03:21:44.484Z,96145.30
2023-03-17T03:24:14.776Z,96152.45
2023-03-17T03:26:44.948Z,96154.18
2023-03-17T03:29:15.180Z,96155.16
2023-03-17T03:31:47.820Z,96158.30
2023-03-17T03:34:18.442Z,96161.92
2023-03-17T03:36:48.620Z,96166.98
2023-03-17T03:39:19.229Z,96166.95
2023-03-17T03:41:49.347Z,96165.34
2023-03-17T03:44:19.602Z,96164.89
2023-03-17T03:46:49.760Z,96166.77
2023-03-17T03:49:21.180Z,96167.95
2023-03-17T03:51:52.246Z,96168.20
2023-03-17T03:54:22.859Z,96171.48
2023-03-17T03:56:53.718Z,96176.45
2023-03-17T03:59:24.002Z,96177.45
2023-03-17T04:01:54.210Z,96181.92
2023-03-17T04:04:24.685Z,96183.85
2023-03-17T04:06:55.073Z,96176.27
2023-03-17T04:09:25.530Z,96175.11
2023-03-17T04:11:56.027Z,96176.86
2023-03-17T04:14:26.234Z,96182.05
2023-03-17T04:16:56.662Z,96186.52
2023-03-17T04:19:27.515Z,96189.52
2023-03-17T04:21:58.266Z,96188.58
2023-03-17T04:24:28.872Z,96196.58
2023-03-17T04:26:59.549Z,96196.50
2023-03-17T04:29:30.116Z,96202.50
2023-03-17T04:32:00.393Z,96207.35
2023-03-17T04:34:31.386Z,96212.95
2023-03-17T04:37:02.288Z,96208.13
2023-03-17T04:39:32.580Z,96212.50
2023-03-17T04:42:03.069Z,96211.80
2023-03-17T04:44:33.708Z,96216.96
2023-03-17T04:47:04.950Z,96220.57
2023-03-17T04:49:36.615Z,96214.42
2023-03-17T04:52:08.062Z,96221.35
2023-03-17T04:54:38.490Z,96228.77
2023-03-17T04:57:09.659Z,96229.13
2023-03-17T04:59:39.881Z,96232.57
2023-03-17T05:02:10.455Z,96230.86
2023-03-17T05:04:40.724Z,96239.33
2023-03-17T05:07:11.125Z,96242.29
2023-03-17T05:09:41.653Z,96243.05
2023-03-17T05:12:14.300Z,96244.50
2023-03-17T05:14:44.533Z,96247.88
2023-03-17T05:17:15.266Z,96250.45
2023-03-17T05:19:45.405Z,96255.39
2023-03-17T05:22:15.610Z,96258.05
2023-03-17T05:24:47.285Z,96260.55
2023-03-17T05:27:19.023Z,96261.72
2023-03-17T05:29:53.290Z,96263.22
2023-03-17T05:32:23.884Z,96263.77
2023-03-17T05:34:54.116Z,96261.79
2023-03-17T05:37:25.330Z,96266.32
2023-03-17T05:39:55.469Z,96260.52
2023-03-17T05:42:26.033Z,96267.91
2023-03-17T05:44:56.651Z,96266.70
2023-03-17T05:47:27.591Z,96267.07
2023-03-17T05:49:57.857Z,96271.71
2023-03-17T05:52:28.464Z,96269.10
2023-03-17T05:54:58.991Z,96274.85
2023-03-17T05:57:29.429Z,96276.39
2023-03-17T06:00:00.045Z,96277.35
2023-03-17T06:02:30.823Z,96279.20
2023-03-17T06:05:01.827Z,96286.46
2023-03-17T06:07:41.130Z,96286.49
2023-03-17T06:10:21.212Z,96283.14
2023-03-17T06:12:52.032Z,96278.50
2023-03-17T06:15:22.629Z,96276.64
2023-03-17T06:17:53.231Z,96279.69
2023-03-17T06:20:23.494Z,96278.16
2023-03-17T06:23:03.870Z,96281.14
2023-03-17T06:25:37.014Z,96275.54
2023-03-17T06:28:07.756Z,96267.13
2023-03-17T06:30:40.649Z,96262.48
2023-03-17T06:33:11.667Z,96255.27
2023-03-17T06:35:42.351Z,96251.71
2023-03-17T06:38:13.850Z,96257.07
2023-03-17T06:40:44.901Z,96259.23
2023-03-17T06:43:15.093Z,96262.52
2023-03-17T06:45:45.395Z,96262.90
2023-03-17T06:48:15.629Z,96263.33
2023-03-17T06:50:47.484Z,96266.27
2023-03-17T06:53:17.771Z,96264.52
2023-03-17T06:55:48.718Z,96265.27
2023-03-17T06:58:20.679Z,96267.15
2023-03-17T07:00:54.161Z,96266.55
2023-03-17T07:03:25.337Z,96265.78
2023-03-17T07:05:55.530Z,96266.27
2023-03-17T07:08:25.772Z,96266.66
2023-03-17T07:10:57.753Z,96272.65
2023-03-17T07:13:28.067Z,96272.58
2023-03-17T07:16:00.500Z,96275.00
2023-03-17T07:18:31.844Z,96268.48
2023-03-17T07:21:03.059Z,96272.48
2023-03-17T07:23:33.367Z,96273.73
2023-03-17T07:26:04.032Z,96270.84
2023-03-17T07:28:34.509Z,96271.25
2023-03-17T07:31:08.804Z,96268.95
2023-03-17T07:33:39.326Z,96270.90
2023-03-17T07:36:10.731Z,96269.70
2023-03-17T07:38:41.433Z,96271.32
2023-03-17T07:41:12.098Z,96265.83
2023-03-17T07:43:42.247Z,96261.50
2023-03-17T07:46:13.531Z,96261.30
2023-03-17T07:48:44.292Z,96256.98
2023-03-17T07:51:17.358Z,96254.63
2023-03-17T07:53:50.045Z,96251.52
2023-03-17T07:56:21.224Z,96248.70
2023-03-17T07:58:51.609Z,96245.08
2023-03-17T08:01:23.160Z,96237.11
2023-03-17T08:03:53.468Z,96236.42
2023-03-17T08:06:25.088Z,96235.55
2023-03-17T08:08:56.452Z,96240.46
2023-03-17T08:11:29.242Z,96235.35
2023-03-17T08:14:01.235Z,96231.23
2023-03-17T08:16:31.732Z,96235.46
2023-03-17T08:19:04.089Z,96231.29
2023-03-17T08:21:34.490Z,96226.23
2023-03-17T08:24:05.921Z,96223.52
2023-03-17T08:26:37.255Z,96222.91
2023-03-17T08:29:07.858Z,96216.84
2023-03-17T08:31:38.252Z,96217.70
2023-03-17T08:34:08.980Z,96208.65
2023-03-17T08:36:39.488Z,96207.59
2023-03-17T08:39:10.463Z,96208.71
2023-03-17T08:41:41.438Z,96201.57
2023-03-17T08:44:12.706Z,96206.06
2023-03-17T08:46:42.973Z,96208.16
2023-03-17T08:49:13.303Z,96211.31
2023-03-17T08:51:44.809Z,96213.84
2023-03-17T08:54:15.542Z,96211.74
2023-03-17T08:56:46.836Z,96213.48
2023-03-17T08:59:17.105Z,96212.34
2023-03-17T09:01:47.660Z,96208.02
2023-03-17T09:04:18.365Z,96206.73
2023-03-17T09:07:02.310Z,96199.09
2023-03-17T09:09:35.105Z,96199.51
2023-03-17T09:12:06.803Z,96197.23
2023-03-17T09:14:43.367Z,96203.04
2023-03-17T09:17:15.767Z,96202.17
2023-03-17T09:19:46.113Z,96203.84
2023-03-17T09:22:17.662Z,96201.13
2023-03-17T09:24:47.873Z,96203.30
2023-03-17T09:27:18.282Z,96203.27
2023-03-17T09:29:48.721Z,96202.80
2023-03-17T09:32:19.267Z,96206.32
2023-03-17T09:34:51.606Z,96203.02
2023-03-17T09:37:22.321Z,96202.98
2023-03-17T09:39:52.760Z,96205.92
2023-03-17T09:42:36.745Z,96202.61
2023-03-17T09:45:15.454Z,96197.65
2023-03-17T09:48:12.985Z,96194.97
2023-03-17T09:50:47.891Z,96186.28
2023-03-17T09:53:20.452Z,96183.14
2023-03-17T09:55:55.523Z,96178.13
2023-03-17T09:58:31.014Z,96178.60
2023-03-17T10:01:02.782Z,96175.25
2023-03-17T10:03:33.851Z,96172.64
2023-03-17T10:06:22.509Z,96173.45
2023-03-17T10:08:58.316Z,96169.15
2023-03-17T10:11:38.957Z,96170.83
2023-03-17T10:14:23.884Z,96166.56
2023-03-17T10:16:57.004Z,96164.22
2023-03-17T10:19:30.493Z,96165.71
2023-03-17T10:22:03.907Z,96163.86
2023-03-17T10:24:35.906Z,96162.40
2023-03-17T10:27:07.752Z,96170.29
2023-03-17T10:29:38.119Z,96170.63
2023-03-17T10:32:12.367Z,96168.15
2023-03-17T10:34:43.794Z,96166.83
2023-03-17T10:37:17.380Z,96164.05
2023-03-17T10:39:48.843Z,96163.26
2023-03-17T10:42:24.295Z,96161.20
2023-03-17T10:44:56.786Z,96163.89
2023-03-17T10:47:38.716Z,96163.37
2023-03-17T10:50:21.275Z,96166.95
2023-03-17T10:52:54.590Z,96164.67
2023-03-17T10:55:29.242Z,96162.75
2023-03-17T10:58:04.033Z,96157.71
2023-03-17T11:00:36.409Z,96162.02
2023-03-17T11:03:15.873Z,96162.56
2023-03-17T11:05:57.632Z,96163.36
2023-03-17T11:08:33.053Z,96160.77
2023-03-17T11:11:07.432Z,96159.34
2023-03-17T11:13:38.231Z,96160.11
2023-03-17T11:16:21.816Z,96159.10
2023-03-17T11:18:54.967Z,96161.61
2023-03-17T11:21:28.055Z,96156.27
2023-03-17T11:24:01.973Z,96160.80
2023-03-17T11:26:53.233Z,96158.98
2023-03-17T11:29:39.938Z,96159.02
2023-03-17T11:32:26.164Z,96165.55
2023-03-17T11:35:11.144Z,96165.08
2023-03-17T11:37:53.745Z,96164.61
2023-03-17T11:40:33.193Z,96166.23
2023-03-17T11:43:17.010Z,96170.11
2023-03-17T11:45:48.880Z,96166.68
2023-03-17T11:48:34.696Z,96165.55
2023-03-17T11:51:09.692Z,96167.96
2023-03-17T11:53:50.922Z,96170.42
2023-03-17T11:56:24.050Z,96170.84
2023-03-17T11:58:58.822Z,96168.36
2023-03-17T12:01:33.560Z,96173.78
2023-03-17T12:04:12.171Z,96172.69
2023-03-17T12:06:45.719Z,96172.91
2023-03-17T12:09:25.558Z,96172.77
2023-03-17T12:11:57.526Z,96173.87
2023-03-17T12:14:30.546Z,96175.60
2023-03-17T12:17:06.782Z,96177.52
2023-03-17T12:19:42.144Z,96180.11
2023-03-17T12:22:19.781Z,96181.05
2023-03-17T12:24:54.584Z,96185.45
2023-03-17T12:27:27.973Z,96181.95
2023-03-17T12:30:01.915Z,96179.94
2023-03-17T12:32:39.084Z,96187.55
2023-03-17T12:35:26.749Z,96190.33
2023-03-17T12:37:59.174Z,96188.45
2023-03-17T12:40:35.277Z,96188.40
2023-03-17T12:43:23.786Z,96187.64
2023-03-17T12:46:15.711Z,96188.09
2023-03-17T12:49:01.054Z,96191.66
2023-03-17T12:51:46.491Z,96190.73
2023-03-17T12:54:21.886Z,96199.30
2023-03-17T12:56:52.032Z,96201.83
2023-03-17T12:59:24.857Z,96201.55
2023-03-17T13:01:59.409Z,96198.52
2023-03-17T13:04:32.830Z,96205.10
2023-03-17T13:07:09.609Z,96207.04
2023-03-17T13:09:47.144Z,96202.70
2023-03-17T13:12:48.913Z,96206.80
2023-03-17T13:15:30.848Z,96214.34
2023-03-17T13:18:50.219Z,96218.27
2023-03-17T13:21:24.683Z,96217.59
2023-03-17T13:24:01.104Z,96218.30
2023-03-17T13:26:56.956Z,96218.41
2023-03-17T13:29:47.730Z,96220.75
2023-03-17T13:32:52.719Z,96220.45
2023-03-17T13:35:27.887Z,96226.73
2023-03-17T13:38:21.626Z,96226.84
2023-03-17T13:41:01.119Z,96225.30
2023-03-17T13:44:01.158Z,96226.53
2023-03-17T13:46:40.047Z,96226.95
2023-03-17T13:49:22.140Z,96228.28
2023-03-17T13:52:00.179Z,96234.55
2023-03-17T13:54:36.710Z,96236.51
2023-03-17T13:57:28.246Z,96239.26
2023-03-17T14:00:02.497Z,96245.82
2023-03-17T14:02:34.882Z,96251.27
2023-03-17T14:05:07.453Z,96251.15
2023-03-17T14:07:45.374Z,96257.30
2023-03-17T14:10:19.501Z,96260.00
2023-03-17T14:12:53.043Z,96258.40
2023-03-17T14:15:28.106Z,96262.08
2023-03-17T14:18:01.261Z,96269.91
2023-03-17T14:20:31.897Z,96273.05
2023-03-17T14:23:03.940Z,96273.20
2023-03-17T14:25:36.343Z,96273.94
2023-03-17T14:28:11.205Z,96278.27
2023-03-17T14:30:41.605Z,96287.27
2023-03-17T14:33:20.622Z,96288.31
2023-03-17T14:35:52.623Z,96293.22
2023-03-17T14:38:25.572Z,96297.86
2023-03-17T14:41:04.081Z,96299.89
2023-03-17T14:43:35.232Z,96307.64
2023-03-17T14:46:07.321Z,96307.38
2023-03-17T14:48:38.966Z,96311.39
2023-03-17T14:51:13.039Z,96312.73
2023-03-17T14:53:46.182Z,96317.99
2023-03-17T14:56:16.581Z,96321.40
2023-03-17T14:58:48.216Z,96321.10
2023-03-17T15:01:20.665Z,96326.76
2023-03-17T15:03:58.334Z,96331.43
2023-03-17T15:06:30.488Z,96331.33
2023-03-17T15:09:03.692Z,96334.42
2023-03-17T15:11:41.037Z,96339.46
2023-03-17T15:14:20.646Z,96341.23
2023-03-17T15:16:53.246Z,96342.95
2023-03-17T15:19:27.682Z,96344.08
2023-03-17T15:22:00.076Z,96349.45
2023-03-17T15:24:41.004Z,96349.95
2023-03-17T15:27:16.989Z,96350.56
2023-03-17T15:29:48.029Z,96348.30
2023-03-17T15:32:19.994Z,96351.15
2023-03-17T15:34:51.234Z,96353.73
2023-03-17T15:37:22.605Z,96355.23
2023-03-17T15:39:53.407Z,96359.35
2023-03-17T15:42:25.162Z,96363.02
2023-03-17T15:44:56.021Z,96362.48
2023-03-17T15:47:28.629Z,96366.20
2023-03-17T15:50:01.714Z,96369.02
2023-03-17T15:52:32.075Z,96370.98
2023-03-17T15:55:02.816Z,96376.98
2023-03-17T15:57:33.984Z,96379.35
2023-03-17T16:00:05.005Z,96382.25
2023-03-17T16:02:37.051Z,96381.25
2023-03-17T16:05:17.149Z,96377.62
2023-03-17T16:07:47.819Z,96382.37
2023-03-17T16:10:20.431Z,96381.98
2023-03-17T16:12:51.088Z,96388.33
2023-03-17T16:15:24.062Z,96387.23
2023-03-17T16:17:56.259Z,96392.88
2023-03-17T16:20:37.595Z,96396.74
2023-03-17T16:23:13.600Z,96404.39
2023-03-17T16:25:44.471Z,96401.34
2023-03-17T16:28:18.715Z,96403.66
2023-03-17T16:30:50.018Z,96401.88
2023-03-17T16:33:22.252Z,96401.48
2023-03-17T16:35:54.227Z,96407.85
2023-03-17T16:38:26.078Z,96407.73
2023-03-17T16:40:59.270Z,96414.23
2023-03-17T16:43:31.288Z,96418.93
2023-03-17T16:46:03.366Z,96414.72
2023-03-17T16:48:33.967Z,96416.78
2023-03-17T16:51:05.727Z,96419.45
2023-03-17T16:53:36.445Z,96421.60
2023-03-17T16:56:14.328Z,96415.05
2023-03-17T16:58:45.172Z,96420.85
2023-03-17T17:01:17.575Z,96416.84
2023-03-17T17:03:47.871Z,96421.16
2023-03-17T17:06:19.340Z,96422.05
2023-03-17T17:08:51.186Z,96419.35
2023-03-17T17:11:22.303Z,96418.92
2023-03-17T17:13:52.637Z,96416.59
2023-03-17T17:16:26.315Z,96418.66
2023-03-17T17:18:57.087Z,96418.30
2023-03-17T17:21:28.295Z,96421.00
2023-03-17T17:23:59.016Z,96421.14
2023-03-17T17:26:30.024Z,96422.53
2023-03-17T17:29:00.376Z,96423.41
2023-03-17T17:31:30.700Z,96426.08
2023-03-17T17:34:01.141Z,96429.80
2023-03-17T17:36:31.631Z,96432.34
2023-03-17T17:39:01.976Z,96431.30
2023-03-17T17:41:34.085Z,96429.82
2023-03-17T17:44:05.586Z,96434.03
2023-03-17T17:46:37.298Z,96430.70
2023-03-17T17:49:08.150Z,96431.52
2023-03-17T17:51:38.468Z,96430.59
2023-03-17T17:54:08.918Z,96428.77
2023-03-17T17:56:40.227Z,96429.64
2023-03-17T17:59:11.925Z,96428.52
2023-03-17T18:01:42.331Z,96428.92
2023-03-17T18:04:13.222Z,96429.05
2023-03-17T18:06:43.540Z,96428.27
2023-03-17T18:09:14.588Z,96427.08
2023-03-17T18:11:44.878Z,96426.30
2023-03-17T18:14:15.270Z,96421.52
2023-03-17T18:16:45.890Z,96418.36
2023-03-17T18:19:16.690Z,96419.25
2023-03-17T18:21:47.266Z,96416.76
2023-03-17T18:24:17.562Z,96417.00
2023-03-17T18:26:47.781Z,96416.73
2023-03-17T18:29:18.452Z,96414.75
2023-03-17T18:31:50.470Z,96410.99
2023-03-17T18:34:23.638Z,96415.14
2023-03-17T18:36:55.418Z,96416.29
2023-03-17T18:39:26.105Z,96420.08
2023-03-17T18:41:56.550Z,96417.02
2023-03-17T18:44:26.838Z,96417.46
2023-03-17T18:46:57.262Z,96417.14
2023-03-17T18:49:28.005Z,96413.88
2023-03-17T18:51:59.280Z,96414.34
2023-03-17T18:54:31.487Z,96418.60
2023-03-17T18:57:01.870Z,96420.55
2023-03-17T18:59:32.120Z,96422.42
2023-03-17T19:02:03.502Z,96424.54
2023-03-17T19:04:33.969Z,96422.42
2023-03-17T19:07:04.462Z,96419.31
2023-03-17T19:09:35.150Z,96419.10
2023-03-17T19:12:07.292Z,96418.03
2023-03-17T19:14:38.342Z,96415.61
2023-03-17T19:17:09.104Z,96417.67
2023-03-17T19:19:41.072Z,96419.45
2023-03-17T19:22:11.907Z,96419.33
2023-03-17T19:24:42.125Z,96416.92
2023-03-17T19:27:12.234Z,96424.96
2023-03-17T19:29:43.130Z,96423.59
2023-03-17T19:32:13.692Z,96422.02
2023-03-17T19:34:44.031Z,96421.48
2023-03-17T19:37:14.270Z,96425.11
2023-03-17T19:39:44.943Z,96422.23
2023-03-17T19:42:15.895Z,96424.05
2023-03-17T19:44:46.026Z,96424.04
2023-03-17T19:47:16.456Z,96426.55
2023-03-17T19:49:47.044Z,96431.54
2023-03-17T19:52:17.274Z,96429.08
2023-03-17T19:54:48.576Z,96430.71
2023-03-17T19:57:20.473Z,96429.09
2023-03-17T19:59:51.828Z,96432.45
2023-03-17T20:02:22.519Z,96431.35
2023-03-17T20:04:53.426Z,96433.91
2023-03-17T20:07:23.842Z,96429.39
2023-03-17T20:09:54.704Z,96429.69
2023-03-17T20:12:25.389Z,96429.52
2023-03-17T20:14:55.768Z,96429.42
2023-03-17T20:17:26.332Z,96426.15
2023-03-17T20:20:14.830Z,96428.91
2023-03-17T20:22:46.472Z,96423.86
2023-03-17T20:25:16.913Z,96425.70
2023-03-17T20:27:47.105Z,96427.46
2023-03-17T20:30:17.820Z,96425.80
2023-03-17T20:32:50.577Z,96426.80
2023-03-17T20:35:20.810Z,96425.84
2023-03-17T20:37:52.769Z,96426.48
2023-03-17T20:40:23.515Z,96423.95
2023-03-17T20:42:53.728Z,96430.48
2023-03-17T20:45:24.174Z,96428.64
2023-03-17T20:47:55.800Z,96427.42
2023-03-17T20:50:26.099Z,96429.03
2023-03-17T20:52:56.516Z,96427.82
2023-03-17T20:55:27.535Z,96423.08
2023-03-17T20:58:01.661Z,96423.37
2023-03-17T21:00:32.799Z,96428.50
2023-03-17T21:03:03.841Z,96426.29
2023-03-17T21:05:35.384Z,96430.06
2023-03-17T21:08:06.699Z,96427.88
2023-03-17T21:10:37.112Z,96427.52
2023-03-17T21:13:07.792Z,96428.75
2023-03-17T21:15:38.152Z,96428.50
2023-03-17T21:18:08.477Z,96433.98
2023-03-17T21:20:38.802Z,96435.24
2023-03-17T21:23:09.407Z,96438.54
2023-03-17T21:25:39.788Z,96437.22
2023-03-17T21:28:10.920Z,96438.73
2023-03-17T21:30:44.328Z,96437.91
2023-03-17T21:33:15.167Z,96443.06
2023-03-17T21:35:45.433Z,96446.48
2023-03-17T21:38:15.862Z,96445.27
2023-03-17T21:40:45.999Z,96446.31
2023-03-17T21:43:16.712Z,96447.82
2023-03-17T21:45:47.517Z,96450.05
2023-03-17T21:48:17.950Z,96450.80
2023-03-17T21:50:49.870Z,96450.07
2023-03-17T21:53:20.536Z,96450.35
2023-03-17T21:55:50.783Z,96449.77
2023-03-17T21:58:21.913Z,96453.38
2023-03-17T22:00:53.099Z,96453.73
2023-03-17T22:03:23.236Z,96455.71
2023-03-17T22:05:54.609Z,96454.77
2023-03-17T22:08:25.680Z,96455.79
2023-03-17T22:10:56.610Z,96460.63
2023-03-17T22:13:27.393Z,96460.23
2023-03-17T22:16:01.270Z,96460.42
2023-03-17T22:18:32.545Z,96462.15
2023-03-17T22:21:03.364Z,96462.60
2023-03-17T22:23:39.289Z,96460.61
2023-03-17T22:26:10.258Z,96462.30
2023-03-17T22:28:41.290Z,96461.30
2023-03-17T22:31:16.357Z,96459.46
2023-03-17T22:33:46.563Z,96459.20
2023-03-17T22:36:17.641Z,96457.61
2023-03-17T22:38:48.061Z,96456.73
2023-03-17T22:41:20.423Z,96457.72
2023-03-17T22:43:50.697Z,96454.44
2023-03-17T22:46:21.098Z,96452.77
2023-03-17T22:48:51.506Z,96453.70
2023-03-17T22:51:25.016Z,96452.25
2023-03-17T22:53:55.831Z,96450.94
2023-03-17T22:56:26.532Z,96448.86
2023-03-17T22:58:57.155Z,96448.72
2023-03-17T23:01:28.145Z,96447.02
2023-03-17T23:03:58.410Z,96445.38
2023-03-17T23:06:30.568Z,96444.80
2023-03-17T23:09:00.770Z,96445.23
2023-03-17T23:11:31.947Z,96441.84
2023-03-17T23:14:02.761Z,96442.77
2023-03-17T23:16:32.989Z,96446.40
2023-03-17T23:19:03.211Z,96444.33
2023-03-17T23:21:35.291Z,96442.04
2023-03-17T23:24:07.346Z,96440.98
2023-03-17T23:26:37.888Z,96434.16
2023-03-17T23:29:09.632Z,96434.16
2023-03-17T23:31:40.677Z,96433.75
2023-03-17T23:34:11.760Z,96430.55
2023-03-17T23:36:42.072Z,96429.23
2023-03-17T23:39:12.219Z,96427.11
2023-03-17T23:41:42.463Z,96424.69
2023-03-17T23:44:14.196Z,96422.52
2023-03-17T23:46:44.802Z,96423.71
2023-03-17T23:49:15.397Z,96420.29
2023-03-17T23:51:45.879Z,96418.34
2023-03-17T23:54:16.552Z,96420.55
2023-03-17T23:56:46.679Z,96422.15
2023-03-17T23:59:16.840Z,96423.01
